sensor_id;sensor_type;location;lat;lon;timestamp;P1;durP1;ratioP1;P2;durP2;ratioP2
19006;SDS011;9636;47.382;8.480;2023-06-14T00:00:33;4.40;;;3.65;;
19006;SDS011;9636;47.382;8.480;2023-06-14T00:03:00;4.40;;;3.55;;
19006;SDS011;9636;47.382;8.480;2023-06-14T00:05:28;3.70;;;3.30;;
19006;SDS011;9636;47.382;8.480;2023-06-14T00:07:57;3.85;;;3.45;;
19006;SDS011;9636;47.382;8.480;2023-06-14T00:10:25;5.43;;;3.75;;
19006;SDS011;9636;47.382;8.480;2023-06-14T00:12:56;5.35;;;3.40;;
19006;SDS011;9636;47.382;8.480;2023-06-14T00:15:24;4.32;;;3.60;;
19006;SDS011;9636;47.382;8.480;2023-06-14T00:17:52;4.43;;;3.80;;
19006;SDS011;9636;47.382;8.480;2023-06-14T00:20:19;4.47;;;3.53;;
19006;SDS011;9636;47.382;8.480;2023-06-14T00:22:46;6.75;;;3.97;;
19006;SDS011;9636;47.382;8.480;2023-06-14T00:25:13;4.30;;;3.63;;
19006;SDS011;9636;47.382;8.480;2023-06-14T00:27:40;4.65;;;3.83;;
19006;SDS011;9636;47.382;8.480;2023-06-14T00:30:07;3.95;;;3.55;;
19006;SDS011;9636;47.382;8.480;2023-06-14T00:32:35;4.80;;;3.78;;
19006;SDS011;9636;47.382;8.480;2023-06-14T00:35:03;4.63;;;3.67;;
19006;SDS011;9636;47.382;8.480;2023-06-14T00:37:32;4.68;;;3.75;;
19006;SDS011;9636;47.382;8.480;2023-06-14T00:39:59;4.20;;;3.50;;
19006;SDS011;9636;47.382;8.480;2023-06-14T00:42:26;4.30;;;3.90;;
19006;SDS011;9636;47.382;8.480;2023-06-14T00:44:54;4.18;;;3.50;;
19006;SDS011;9636;47.382;8.480;2023-06-14T00:47:21;4.65;;;3.42;;
19006;SDS011;9636;47.382;8.480;2023-06-14T00:49:48;4.75;;;3.67;;
19006;SDS011;9636;47.382;8.480;2023-06-14T00:52:18;3.92;;;3.40;;
19006;SDS011;9636;47.382;8.480;2023-06-14T00:54:45;5.63;;;3.72;;
19006;SDS011;9636;47.382;8.480;2023-06-14T00:57:12;5.13;;;3.50;;
19006;SDS011;9636;47.382;8.480;2023-06-14T00:59:41;4.13;;;3.72;;
19006;SDS011;9636;47.382;8.480;2023-06-14T01:02:09;3.90;;;3.50;;
19006;SDS011;9636;47.382;8.480;2023-06-14T01:04:36;4.50;;;3.53;;
19006;SDS011;9636;47.382;8.480;2023-06-14T01:07:07;4.07;;;3.55;;
19006;SDS011;9636;47.382;8.480;2023-06-14T01:09:43;6.05;;;3.53;;
19006;SDS011;9636;47.382;8.480;2023-06-14T01:12:21;4.38;;;3.40;;
19006;SDS011;9636;47.382;8.480;2023-06-14T01:14:55;5.60;;;3.10;;
19006;SDS011;9636;47.382;8.480;2023-06-14T01:17:25;4.63;;;3.80;;
19006;SDS011;9636;47.382;8.480;2023-06-14T01:19:56;4.13;;;3.55;;
19006;SDS011;9636;47.382;8.480;2023-06-14T01:22:25;4.10;;;3.70;;
19006;SDS011;9636;47.382;8.480;2023-06-14T01:24:54;5.75;;;3.53;;
19006;SDS011;9636;47.382;8.480;2023-06-14T01:27:22;4.97;;;3.42;;
19006;SDS011;9636;47.382;8.480;2023-06-14T01:29:53;4.70;;;3.60;;
19006;SDS011;9636;47.382;8.480;2023-06-14T01:32:21;4.88;;;3.80;;
19006;SDS011;9636;47.382;8.480;2023-06-14T01:34:49;5.35;;;3.85;;
19006;SDS011;9636;47.382;8.480;2023-06-14T01:37:16;6.78;;;3.65;;
19006;SDS011;9636;47.382;8.480;2023-06-14T01:39:44;6.47;;;4.20;;
19006;SDS011;9636;47.382;8.480;2023-06-14T01:42:13;4.50;;;3.40;;
19006;SDS011;9636;47.382;8.480;2023-06-14T01:44:42;4.90;;;3.65;;
19006;SDS011;9636;47.382;8.480;2023-06-14T01:47:10;6.03;;;3.75;;
19006;SDS011;9636;47.382;8.480;2023-06-14T01:49:38;5.53;;;3.72;;
19006;SDS011;9636;47.382;8.480;2023-06-14T01:52:05;5.65;;;3.45;;
19006;SDS011;9636;47.382;8.480;2023-06-14T01:54:34;4.50;;;3.40;;
19006;SDS011;9636;47.382;8.480;2023-06-14T01:57:03;5.20;;;3.80;;
19006;SDS011;9636;47.382;8.480;2023-06-14T01:59:33;7.97;;;3.67;;
19006;SDS011;9636;47.382;8.480;2023-06-14T02:02:00;5.15;;;3.75;;
19006;SDS011;9636;47.382;8.480;2023-06-14T02:04:28;4.65;;;3.90;;
19006;SDS011;9636;47.382;8.480;2023-06-14T02:06:55;4.80;;;3.72;;
19006;SDS011;9636;47.382;8.480;2023-06-14T02:09:22;4.38;;;3.10;;
19006;SDS011;9636;47.382;8.480;2023-06-14T02:11:48;4.73;;;3.57;;
19006;SDS011;9636;47.382;8.480;2023-06-14T02:14:15;4.20;;;3.80;;
19006;SDS011;9636;47.382;8.480;2023-06-14T02:16:44;4.93;;;3.92;;
19006;SDS011;9636;47.382;8.480;2023-06-14T02:19:14;5.03;;;3.80;;
19006;SDS011;9636;47.382;8.480;2023-06-14T02:21:41;5.47;;;3.70;;
19006;SDS011;9636;47.382;8.480;2023-06-14T02:24:08;3.87;;;3.47;;
19006;SDS011;9636;47.382;8.480;2023-06-14T02:26:35;4.50;;;3.50;;
19006;SDS011;9636;47.382;8.480;2023-06-14T02:29:02;6.05;;;3.78;;
19006;SDS011;9636;47.382;8.480;2023-06-14T02:31:30;4.30;;;3.90;;
19006;SDS011;9636;47.382;8.480;2023-06-14T02:33:58;6.47;;;3.93;;
19006;SDS011;9636;47.382;8.480;2023-06-14T02:36:25;4.73;;;3.57;;
19006;SDS011;9636;47.382;8.480;2023-06-14T02:38:52;5.10;;;3.70;;
19006;SDS011;9636;47.382;8.480;2023-06-14T02:41:19;4.75;;;3.63;;
19006;SDS011;9636;47.382;8.480;2023-06-14T02:43:46;7.85;;;3.95;;
19006;SDS011;9636;47.382;8.480;2023-06-14T02:46:13;7.32;;;4.00;;
19006;SDS011;9636;47.382;8.480;2023-06-14T02:48:40;5.40;;;3.40;;
19006;SDS011;9636;47.382;8.480;2023-06-14T02:51:08;5.05;;;3.80;;
19006;SDS011;9636;47.382;8.480;2023-06-14T02:53:34;5.18;;;3.83;;
19006;SDS011;9636;47.382;8.480;2023-06-14T02:56:02;4.65;;;3.85;;
19006;SDS011;9636;47.382;8.480;2023-06-14T02:58:28;4.18;;;3.47;;
19006;SDS011;9636;47.382;8.480;2023-06-14T03:00:56;6.28;;;3.92;;
19006;SDS011;9636;47.382;8.480;2023-06-14T03:03:23;5.03;;;3.73;;
19006;SDS011;9636;47.382;8.480;2023-06-14T03:05:51;6.77;;;3.80;;
19006;SDS011;9636;47.382;8.480;2023-06-14T03:08:21;3.60;;;3.30;;
19006;SDS011;9636;47.382;8.480;2023-06-14T03:10:52;3.87;;;3.47;;
19006;SDS011;9636;47.382;8.480;2023-06-14T03:13:19;4.67;;;3.43;;
19006;SDS011;9636;47.382;8.480;2023-06-14T03:15:47;4.53;;;3.50;;
19006;SDS011;9636;47.382;8.480;2023-06-14T03:18:15;7.23;;;3.80;;
19006;SDS011;9636;47.382;8.480;2023-06-14T03:20:42;5.60;;;3.87;;
19006;SDS011;9636;47.382;8.480;2023-06-14T03:23:10;4.37;;;3.97;;
19006;SDS011;9636;47.382;8.480;2023-06-14T03:25:39;5.20;;;3.90;;
19006;SDS011;9636;47.382;8.480;2023-06-14T03:28:07;4.97;;;4.03;;
19006;SDS011;9636;47.382;8.480;2023-06-14T03:30:34;5.37;;;3.33;;
19006;SDS011;9636;47.382;8.480;2023-06-14T03:33:01;5.17;;;3.67;;
19006;SDS011;9636;47.382;8.480;2023-06-14T03:35:28;5.97;;;4.00;;
19006;SDS011;9636;47.382;8.480;2023-06-14T03:37:55;6.40;;;3.87;;
19006;SDS011;9636;47.382;8.480;2023-06-14T03:40:22;5.07;;;3.93;;
19006;SDS011;9636;47.382;8.480;2023-06-14T03:42:53;4.85;;;3.80;;
19006;SDS011;9636;47.382;8.480;2023-06-14T03:45:20;4.67;;;3.70;;
19006;SDS011;9636;47.382;8.480;2023-06-14T03:47:47;6.27;;;4.23;;
19006;SDS011;9636;47.382;8.480;2023-06-14T03:50:15;5.27;;;3.50;;
19006;SDS011;9636;47.382;8.480;2023-06-14T03:52:43;6.60;;;3.55;;
19006;SDS011;9636;47.382;8.480;2023-06-14T03:55:10;5.17;;;3.70;;
19006;SDS011;9636;47.382;8.480;2023-06-14T03:57:38;6.23;;;3.60;;
19006;SDS011;9636;47.382;8.480;2023-06-14T04:00:07;4.93;;;3.90;;
19006;SDS011;9636;47.382;8.480;2023-06-14T04:02:36;5.60;;;3.30;;
19006;SDS011;9636;47.382;8.480;2023-06-14T04:05:03;4.53;;;4.03;;
19006;SDS011;9636;47.382;8.480;2023-06-14T04:07:33;4.10;;;3.70;;
19006;SDS011;9636;47.382;8.480;2023-06-14T04:10:05;4.33;;;3.70;;
19006;SDS011;9636;47.382;8.480;2023-06-14T04:12:32;5.73;;;4.00;;
19006;SDS011;9636;47.382;8.480;2023-06-14T04:14:59;4.10;;;3.57;;
19006;SDS011;9636;47.382;8.480;2023-06-14T04:17:27;8.17;;;3.87;;
19006;SDS011;9636;47.382;8.480;2023-06-14T04:19:54;3.50;;;3.20;;
19006;SDS011;9636;47.382;8.480;2023-06-14T04:22:23;5.33;;;3.77;;
19006;SDS011;9636;47.382;8.480;2023-06-14T04:24:53;6.43;;;3.40;;
19006;SDS011;9636;47.382;8.480;2023-06-14T04:27:21;4.70;;;3.67;;
19006;SDS011;9636;47.382;8.480;2023-06-14T04:29:50;4.33;;;3.77;;
19006;SDS011;9636;47.382;8.480;2023-06-14T04:32:21;4.77;;;3.43;;
19006;SDS011;9636;47.382;8.480;2023-06-14T04:34:52;5.10;;;3.50;;
19006;SDS011;9636;47.382;8.480;2023-06-14T04:37:20;4.13;;;3.72;;
19006;SDS011;9636;47.382;8.480;2023-06-14T04:39:47;5.43;;;3.88;;
19006;SDS011;9636;47.382;8.480;2023-06-14T04:42:15;9.05;;;3.70;;
19006;SDS011;9636;47.382;8.480;2023-06-14T04:44:42;4.43;;;3.50;;
19006;SDS011;9636;47.382;8.480;2023-06-14T04:47:10;4.38;;;3.50;;
19006;SDS011;9636;47.382;8.480;2023-06-14T04:49:37;5.22;;;3.45;;
19006;SDS011;9636;47.382;8.480;2023-06-14T04:52:07;3.93;;;3.40;;
19006;SDS011;9636;47.382;8.480;2023-06-14T04:54:35;3.88;;;3.33;;
19006;SDS011;9636;47.382;8.480;2023-06-14T04:57:03;4.90;;;3.63;;
19006;SDS011;9636;47.382;8.480;2023-06-14T04:59:30;6.80;;;3.80;;
19006;SDS011;9636;47.382;8.480;2023-06-14T05:01:58;6.40;;;3.88;;
19006;SDS011;9636;47.382;8.480;2023-06-14T05:04:25;5.57;;;4.10;;
19006;SDS011;9636;47.382;8.480;2023-06-14T05:06:53;4.57;;;3.90;;
19006;SDS011;9636;47.382;8.480;2023-06-14T05:09:21;6.07;;;3.67;;
19006;SDS011;9636;47.382;8.480;2023-06-14T05:11:48;4.82;;;3.45;;
19006;SDS011;9636;47.382;8.480;2023-06-14T05:14:15;5.75;;;3.53;;
19006;SDS011;9636;47.382;8.480;2023-06-14T05:16:42;5.03;;;3.50;;
19006;SDS011;9636;47.382;8.480;2023-06-14T05:19:09;6.93;;;3.90;;
19006;SDS011;9636;47.382;8.480;2023-06-14T05:21:36;5.22;;;3.42;;
19006;SDS011;9636;47.382;8.480;2023-06-14T05:24:03;4.38;;;3.30;;
19006;SDS011;9636;47.382;8.480;2023-06-14T05:26:31;3.92;;;3.28;;
19006;SDS011;9636;47.382;8.480;2023-06-14T05:28:58;3.58;;;3.22;;
19006;SDS011;9636;47.382;8.480;2023-06-14T05:31:26;6.95;;;4.25;;
19006;SDS011;9636;47.382;8.480;2023-06-14T05:33:53;4.45;;;3.38;;
19006;SDS011;9636;47.382;8.480;2023-06-14T05:36:20;5.03;;;3.40;;
19006;SDS011;9636;47.382;8.480;2023-06-14T05:38:47;4.70;;;3.65;;
19006;SDS011;9636;47.382;8.480;2023-06-14T05:41:15;6.07;;;3.67;;
19006;SDS011;9636;47.382;8.480;2023-06-14T05:43:44;3.72;;;3.00;;
19006;SDS011;9636;47.382;8.480;2023-06-14T05:46:11;5.97;;;3.45;;
19006;SDS011;9636;47.382;8.480;2023-06-14T05:48:37;5.47;;;3.50;;
19006;SDS011;9636;47.382;8.480;2023-06-14T05:51:04;3.92;;;3.20;;
19006;SDS011;9636;47.382;8.480;2023-06-14T05:53:33;4.05;;;3.63;;
19006;SDS011;9636;47.382;8.480;2023-06-14T05:56:00;5.10;;;3.53;;
19006;SDS011;9636;47.382;8.480;2023-06-14T05:58:27;6.18;;;3.33;;
19006;SDS011;9636;47.382;8.480;2023-06-14T06:00:55;3.63;;;3.33;;
19006;SDS011;9636;47.382;8.480;2023-06-14T06:03:22;3.92;;;3.20;;
19006;SDS011;9636;47.382;8.480;2023-06-14T06:05:49;4.35;;;3.50;;
19006;SDS011;9636;47.382;8.480;2023-06-14T06:08:16;3.58;;;3.15;;
19006;SDS011;9636;47.382;8.480;2023-06-14T06:10:43;3.92;;;3.55;;
19006;SDS011;9636;47.382;8.480;2023-06-14T06:13:10;4.43;;;3.30;;
19006;SDS011;9636;47.382;8.480;2023-06-14T06:15:37;3.72;;;3.40;;
19006;SDS011;9636;47.382;8.480;2023-06-14T06:18:05;3.72;;;3.30;;
19006;SDS011;9636;47.382;8.480;2023-06-14T06:20:32;3.30;;;3.03;;
19006;SDS011;9636;47.382;8.480;2023-06-14T06:22:59;3.78;;;3.25;;
19006;SDS011;9636;47.382;8.480;2023-06-14T06:25:26;3.88;;;3.33;;
19006;SDS011;9636;47.382;8.480;2023-06-14T06:27:54;3.80;;;3.40;;
19006;SDS011;9636;47.382;8.480;2023-06-14T06:30:22;4.82;;;3.20;;
19006;SDS011;9636;47.382;8.480;2023-06-14T06:32:49;6.05;;;3.75;;
19006;SDS011;9636;47.382;8.480;2023-06-14T06:35:17;4.53;;;3.58;;
19006;SDS011;9636;47.382;8.480;2023-06-14T06:37:44;6.45;;;3.28;;
19006;SDS011;9636;47.382;8.480;2023-06-14T06:40:11;4.70;;;3.35;;
19006;SDS011;9636;47.382;8.480;2023-06-14T06:42:38;4.00;;;3.47;;
19006;SDS011;9636;47.382;8.480;2023-06-14T06:45:05;4.63;;;3.40;;
19006;SDS011;9636;47.382;8.480;2023-06-14T06:47:32;4.72;;;3.47;;
19006;SDS011;9636;47.382;8.480;2023-06-14T06:50:00;4.05;;;3.28;;
19006;SDS011;9636;47.382;8.480;2023-06-14T06:52:28;4.07;;;3.15;;
19006;SDS011;9636;47.382;8.480;2023-06-14T06:54:55;4.20;;;3.40;;
19006;SDS011;9636;47.382;8.480;2023-06-14T06:57:22;4.07;;;3.17;;
19006;SDS011;9636;47.382;8.480;2023-06-14T06:59:48;4.22;;;3.20;;
19006;SDS011;9636;47.382;8.480;2023-06-14T07:02:15;3.47;;;3.15;;
19006;SDS011;9636;47.382;8.480;2023-06-14T07:04:42;3.90;;;3.30;;
19006;SDS011;9636;47.382;8.480;2023-06-14T07:07:09;3.50;;;3.20;;
19006;SDS011;9636;47.382;8.480;2023-06-14T07:09:37;5.20;;;3.50;;
19006;SDS011;9636;47.382;8.480;2023-06-14T07:12:06;5.43;;;3.33;;
19006;SDS011;9636;47.382;8.480;2023-06-14T07:14:33;3.55;;;3.25;;
19006;SDS011;9636;47.382;8.480;2023-06-14T07:17:00;5.80;;;4.00;;
19006;SDS011;9636;47.382;8.480;2023-06-14T07:19:27;5.13;;;3.95;;
19006;SDS011;9636;47.382;8.480;2023-06-14T07:21:54;4.68;;;3.63;;
19006;SDS011;9636;47.382;8.480;2023-06-14T07:24:20;3.80;;;3.33;;
19006;SDS011;9636;47.382;8.480;2023-06-14T07:26:48;4.00;;;3.28;;
19006;SDS011;9636;47.382;8.480;2023-06-14T07:29:15;3.67;;;3.10;;
19006;SDS011;9636;47.382;8.480;2023-06-14T07:31:42;3.92;;;3.50;;
19006;SDS011;9636;47.382;8.480;2023-06-14T07:34:09;5.55;;;3.10;;
19006;SDS011;9636;47.382;8.480;2023-06-14T07:36:36;3.60;;;3.00;;
19006;SDS011;9636;47.382;8.480;2023-06-14T07:39:03;4.82;;;3.38;;
19006;SDS011;9636;47.382;8.480;2023-06-14T07:41:31;4.60;;;3.30;;
19006;SDS011;9636;47.382;8.480;2023-06-14T07:43:59;3.75;;;3.15;;
19006;SDS011;9636;47.382;8.480;2023-06-14T07:46:26;5.00;;;3.55;;
19006;SDS011;9636;47.382;8.480;2023-06-14T07:48:53;4.07;;;2.85;;
19006;SDS011;9636;47.382;8.480;2023-06-14T07:51:19;4.03;;;3.33;;
19006;SDS011;9636;47.382;8.480;2023-06-14T07:53:48;3.38;;;3.00;;
19006;SDS011;9636;47.382;8.480;2023-06-14T07:56:15;3.55;;;2.92;;
19006;SDS011;9636;47.382;8.480;2023-06-14T07:58:42;3.40;;;3.10;;
19006;SDS011;9636;47.382;8.480;2023-06-14T08:01:10;3.42;;;3.00;;
19006;SDS011;9636;47.382;8.480;2023-06-14T08:03:37;3.60;;;3.05;;
19006;SDS011;9636;47.382;8.480;2023-06-14T08:06:04;4.43;;;3.17;;
19006;SDS011;9636;47.382;8.480;2023-06-14T08:08:31;4.15;;;2.80;;
19006;SDS011;9636;47.382;8.480;2023-06-14T08:10:57;4.72;;;3.08;;
19006;SDS011;9636;47.382;8.480;2023-06-14T08:13:24;4.72;;;3.60;;
19006;SDS011;9636;47.382;8.480;2023-06-14T08:15:51;3.72;;;3.30;;
19006;SDS011;9636;47.382;8.480;2023-06-14T08:18:19;3.40;;;3.10;;
19006;SDS011;9636;47.382;8.480;2023-06-14T08:20:46;3.60;;;3.30;;
19006;SDS011;9636;47.382;8.480;2023-06-14T08:23:13;3.22;;;2.95;;
19006;SDS011;9636;47.382;8.480;2023-06-14T08:25:40;3.50;;;3.20;;
19006;SDS011;9636;47.382;8.480;2023-06-14T08:28:07;5.28;;;3.58;;
19006;SDS011;9636;47.382;8.480;2023-06-14T08:30:34;3.40;;;3.10;;
19006;SDS011;9636;47.382;8.480;2023-06-14T08:33:01;3.92;;;3.17;;
19006;SDS011;9636;47.382;8.480;2023-06-14T08:35:29;3.13;;;2.83;;
19006;SDS011;9636;47.382;8.480;2023-06-14T08:37:56;3.13;;;2.90;;
19006;SDS011;9636;47.382;8.480;2023-06-14T08:40:23;3.67;;;3.38;;
19006;SDS011;9636;47.382;8.480;2023-06-14T08:42:51;3.00;;;2.80;;
19006;SDS011;9636;47.382;8.480;2023-06-14T08:45:19;3.38;;;3.08;;
19006;SDS011;9636;47.382;8.480;2023-06-14T08:47:46;3.08;;;2.85;;
19006;SDS011;9636;47.382;8.480;2023-06-14T08:50:17;3.30;;;3.00;;
19006;SDS011;9636;47.382;8.480;2023-06-14T08:52:48;4.65;;;2.90;;
19006;SDS011;9636;47.382;8.480;2023-06-14T08:55:18;2.83;;;2.50;;
19006;SDS011;9636;47.382;8.480;2023-06-14T08:57:46;3.00;;;2.80;;
19006;SDS011;9636;47.382;8.480;2023-06-14T09:00:14;3.42;;;3.13;;
19006;SDS011;9636;47.382;8.480;2023-06-14T09:02:42;3.35;;;2.90;;
19006;SDS011;9636;47.382;8.480;2023-06-14T09:05:09;3.50;;;3.20;;
19006;SDS011;9636;47.382;8.480;2023-06-14T09:07:38;3.58;;;3.20;;
19006;SDS011;9636;47.382;8.480;2023-06-14T09:10:09;3.30;;;2.90;;
19006;SDS011;9636;47.382;8.480;2023-06-14T09:12:37;3.35;;;3.05;;
19006;SDS011;9636;47.382;8.480;2023-06-14T09:15:05;5.70;;;3.42;;
19006;SDS011;9636;47.382;8.480;2023-06-14T09:17:33;3.17;;;2.88;;
19006;SDS011;9636;47.382;8.480;2023-06-14T09:20:01;3.22;;;3.00;;
19006;SDS011;9636;47.382;8.480;2023-06-14T09:22:31;3.75;;;3.15;;
19006;SDS011;9636;47.382;8.480;2023-06-14T09:24:58;3.40;;;2.78;;
19006;SDS011;9636;47.382;8.480;2023-06-14T09:27:26;3.47;;;3.15;;
19006;SDS011;9636;47.382;8.480;2023-06-14T09:29:53;3.45;;;2.90;;
19006;SDS011;9636;47.382;8.480;2023-06-14T09:32:20;3.10;;;2.80;;
19006;SDS011;9636;47.382;8.480;2023-06-14T09:34:48;3.30;;;3.00;;
19006;SDS011;9636;47.382;8.480;2023-06-14T09:37:26;3.33;;;3.03;;
19006;SDS011;9636;47.382;8.480;2023-06-14T09:39:54;3.20;;;2.90;;
19006;SDS011;9636;47.382;8.480;2023-06-14T09:42:21;3.40;;;3.10;;
19006;SDS011;9636;47.382;8.480;2023-06-14T09:44:52;4.20;;;2.85;;
19006;SDS011;9636;47.382;8.480;2023-06-14T09:47:20;3.17;;;2.88;;
19006;SDS011;9636;47.382;8.480;2023-06-14T09:49:47;4.70;;;3.08;;
19006;SDS011;9636;47.382;8.480;2023-06-14T09:52:15;3.05;;;2.75;;
19006;SDS011;9636;47.382;8.480;2023-06-14T09:54:43;3.20;;;2.90;;
19006;SDS011;9636;47.382;8.480;2023-06-14T09:57:12;3.57;;;3.10;;
19006;SDS011;9636;47.382;8.480;2023-06-14T09:59:41;3.78;;;3.05;;
19006;SDS011;9636;47.382;8.480;2023-06-14T10:02:11;3.30;;;3.00;;
19006;SDS011;9636;47.382;8.480;2023-06-14T10:04:46;3.60;;;3.30;;
19006;SDS011;9636;47.382;8.480;2023-06-14T10:07:25;3.67;;;3.20;;
19006;SDS011;9636;47.382;8.480;2023-06-14T10:09:55;3.75;;;3.40;;
19006;SDS011;9636;47.382;8.480;2023-06-14T10:12:23;3.55;;;3.00;;
19006;SDS011;9636;47.382;8.480;2023-06-14T10:14:51;3.50;;;3.10;;
19006;SDS011;9636;47.382;8.480;2023-06-14T10:17:22;3.43;;;3.13;;
19006;SDS011;9636;47.382;8.480;2023-06-14T10:19:54;3.55;;;3.25;;
19006;SDS011;9636;47.382;8.480;2023-06-14T10:22:26;3.83;;;3.40;;
19006;SDS011;9636;47.382;8.480;2023-06-14T10:24:58;3.58;;;3.20;;
19006;SDS011;9636;47.382;8.480;2023-06-14T10:33:34;3.60;;;3.30;;
19006;SDS011;9636;47.382;8.480;2023-06-14T10:38:59;3.45;;;3.15;;
19006;SDS011;9636;47.382;8.480;2023-06-14T10:41:29;3.08;;;2.88;;
19006;SDS011;9636;47.382;8.480;2023-06-14T10:44:10;3.55;;;3.08;;
19006;SDS011;9636;47.382;8.480;2023-06-14T10:46:57;3.20;;;3.00;;
19006;SDS011;9636;47.382;8.480;2023-06-14T10:49:37;3.50;;;3.20;;
19006;SDS011;9636;47.382;8.480;2023-06-14T10:52:07;3.45;;;3.10;;
19006;SDS011;9636;47.382;8.480;2023-06-14T10:54:54;3.40;;;3.00;;
19006;SDS011;9636;47.382;8.480;2023-06-14T10:57:22;4.18;;;3.20;;
19006;SDS011;9636;47.382;8.480;2023-06-14T10:59:49;3.55;;;3.25;;
19006;SDS011;9636;47.382;8.480;2023-06-14T11:02:20;3.78;;;3.30;;
19006;SDS011;9636;47.382;8.480;2023-06-14T11:05:20;3.70;;;3.10;;
19006;SDS011;9636;47.382;8.480;2023-06-14T11:08:07;3.40;;;3.10;;
19006;SDS011;9636;47.382;8.480;2023-06-14T11:10:53;3.38;;;3.15;;
19006;SDS011;9636;47.382;8.480;2023-06-14T11:13:25;4.00;;;3.40;;
19006;SDS011;9636;47.382;8.480;2023-06-14T11:15:52;3.47;;;3.13;;
19006;SDS011;9636;47.382;8.480;2023-06-14T11:18:21;3.97;;;3.25;;
19006;SDS011;9636;47.382;8.480;2023-06-14T11:20:50;4.75;;;3.05;;
19006;SDS011;9636;47.382;8.480;2023-06-14T11:23:17;3.78;;;3.30;;
19006;SDS011;9636;47.382;8.480;2023-06-14T11:25:49;3.50;;;3.20;;
19006;SDS011;9636;47.382;8.480;2023-06-14T11:28:16;3.40;;;3.10;;
19006;SDS011;9636;47.382;8.480;2023-06-14T11:30:44;3.92;;;3.53;;
19006;SDS011;9636;47.382;8.480;2023-06-14T11:33:11;3.70;;;3.30;;
19006;SDS011;9636;47.382;8.480;2023-06-14T11:35:43;3.60;;;3.30;;
19006;SDS011;9636;47.382;8.480;2023-06-14T11:38:11;4.00;;;3.60;;
19006;SDS011;9636;47.382;8.480;2023-06-14T11:40:39;3.60;;;3.30;;
19006;SDS011;9636;47.382;8.480;2023-06-14T11:43:06;4.95;;;3.60;;
19006;SDS011;9636;47.382;8.480;2023-06-14T11:45:33;3.70;;;3.40;;
19006;SDS011;9636;47.382;8.480;2023-06-14T11:48:00;4.10;;;3.40;;
19006;SDS011;9636;47.382;8.480;2023-06-14T11:50:27;4.05;;;3.30;;
19006;SDS011;9636;47.382;8.480;2023-06-14T11:52:54;4.22;;;3.00;;
19006;SDS011;9636;47.382;8.480;2023-06-14T11:55:24;3.60;;;3.17;;
19006;SDS011;9636;47.382;8.480;2023-06-14T11:57:51;3.35;;;3.05;;
19006;SDS011;9636;47.382;8.480;2023-06-14T12:00:22;3.65;;;3.25;;
19006;SDS011;9636;47.382;8.480;2023-06-14T12:02:54;3.45;;;3.08;;
19006;SDS011;9636;47.382;8.480;2023-06-14T12:05:22;3.75;;;3.38;;
19006;SDS011;9636;47.382;8.480;2023-06-14T12:07:49;3.67;;;3.30;;
19006;SDS011;9636;47.382;8.480;2023-06-14T12:10:18;3.28;;;2.80;;
19006;SDS011;9636;47.382;8.480;2023-06-14T12:12:46;3.17;;;2.88;;
19006;SDS011;9636;47.382;8.480;2023-06-14T12:15:13;3.08;;;2.78;;
19006;SDS011;9636;47.382;8.480;2023-06-14T12:17:41;3.40;;;3.10;;
19006;SDS011;9636;47.382;8.480;2023-06-14T12:20:09;4.15;;;3.17;;
19006;SDS011;9636;47.382;8.480;2023-06-14T12:22:39;3.50;;;3.20;;
19006;SDS011;9636;47.382;8.480;2023-06-14T12:25:16;3.45;;;3.15;;
19006;SDS011;9636;47.382;8.480;2023-06-14T12:27:53;3.58;;;3.20;;
19006;SDS011;9636;47.382;8.480;2023-06-14T12:30:20;3.42;;;3.10;;
19006;SDS011;9636;47.382;8.480;2023-06-14T12:32:47;4.70;;;3.25;;
19006;SDS011;9636;47.382;8.480;2023-06-14T12:35:16;3.75;;;3.22;;
19006;SDS011;9636;47.382;8.480;2023-06-14T12:37:43;3.47;;;3.17;;
19006;SDS011;9636;47.382;8.480;2023-06-14T12:40:11;4.07;;;3.30;;
19006;SDS011;9636;47.382;8.480;2023-06-14T12:42:38;3.20;;;3.00;;
19006;SDS011;9636;47.382;8.480;2023-06-14T12:45:06;7.40;;;3.50;;
19006;SDS011;9636;47.382;8.480;2023-06-14T12:47:34;3.88;;;3.47;;
19006;SDS011;9636;47.382;8.480;2023-06-14T12:50:00;4.20;;;3.40;;
19006;SDS011;9636;47.382;8.480;2023-06-14T12:52:27;3.80;;;3.50;;
19006;SDS011;9636;47.382;8.480;2023-06-14T12:54:55;3.50;;;3.08;;
19006;SDS011;9636;47.382;8.480;2023-06-14T12:57:23;5.53;;;3.38;;
19006;SDS011;9636;47.382;8.480;2023-06-14T12:59:49;4.28;;;3.45;;
19006;SDS011;9636;47.382;8.480;2023-06-14T13:02:19;4.78;;;3.60;;
19006;SDS011;9636;47.382;8.480;2023-06-14T13:04:47;4.90;;;3.50;;
19006;SDS011;9636;47.382;8.480;2023-06-14T13:07:14;4.13;;;3.20;;
19006;SDS011;9636;47.382;8.480;2023-06-14T13:09:41;3.95;;;3.25;;
19006;SDS011;9636;47.382;8.480;2023-06-14T13:12:08;4.30;;;3.30;;
19006;SDS011;9636;47.382;8.480;2023-06-14T13:14:37;4.70;;;3.50;;
19006;SDS011;9636;47.382;8.480;2023-06-14T13:17:05;3.78;;;3.33;;
19006;SDS011;9636;47.382;8.480;2023-06-14T13:19:33;3.88;;;3.40;;
19006;SDS011;9636;47.382;8.480;2023-06-14T13:22:00;3.70;;;3.40;;
19006;SDS011;9636;47.382;8.480;2023-06-14T13:24:27;3.83;;;3.40;;
19006;SDS011;9636;47.382;8.480;2023-06-14T13:26:54;4.60;;;3.67;;
19006;SDS011;9636;47.382;8.480;2023-06-14T13:29:22;3.83;;;3.45;;
19006;SDS011;9636;47.382;8.480;2023-06-14T13:31:49;3.80;;;3.08;;
19006;SDS011;9636;47.382;8.480;2023-06-14T13:34:16;4.63;;;3.50;;
19006;SDS011;9636;47.382;8.480;2023-06-14T13:36:44;5.20;;;3.40;;
19006;SDS011;9636;47.382;8.480;2023-06-14T13:39:12;4.60;;;3.38;;
19006;SDS011;9636;47.382;8.480;2023-06-14T13:41:39;3.93;;;3.50;;
19006;SDS011;9636;47.382;8.480;2023-06-14T13:44:06;5.00;;;3.50;;
19006;SDS011;9636;47.382;8.480;2023-06-14T13:46:33;4.03;;;3.60;;
19006;SDS011;9636;47.382;8.480;2023-06-14T13:49:00;3.70;;;3.35;;
19006;SDS011;9636;47.382;8.480;2023-06-14T13:51:27;3.95;;;3.35;;
19006;SDS011;9636;47.382;8.480;2023-06-14T13:53:55;3.90;;;3.50;;
19006;SDS011;9636;47.382;8.480;2023-06-14T13:56:22;3.65;;;3.35;;
19006;SDS011;9636;47.382;8.480;2023-06-14T13:58:49;3.50;;;3.20;;
19006;SDS011;9636;47.382;8.480;2023-06-14T14:01:17;3.63;;;3.30;;
19006;SDS011;9636;47.382;8.480;2023-06-14T14:03:44;3.75;;;3.20;;
19006;SDS011;9636;47.382;8.480;2023-06-14T14:06:12;3.67;;;3.30;;
19006;SDS011;9636;47.382;8.480;2023-06-14T14:08:39;3.88;;;3.20;;
19006;SDS011;9636;47.382;8.480;2023-06-14T14:11:07;4.10;;;3.38;;
19006;SDS011;9636;47.382;8.480;2023-06-14T14:13:35;4.00;;;3.30;;
19006;SDS011;9636;47.382;8.480;2023-06-14T14:16:03;4.25;;;3.10;;
19006;SDS011;9636;47.382;8.480;2023-06-14T14:18:31;3.72;;;3.42;;
19006;SDS011;9636;47.382;8.480;2023-06-14T14:20:58;3.63;;;3.33;;
19006;SDS011;9636;47.382;8.480;2023-06-14T14:23:25;3.55;;;3.25;;
19006;SDS011;9636;47.382;8.480;2023-06-14T14:25:52;3.97;;;3.07;;
19006;SDS011;9636;47.382;8.480;2023-06-14T14:28:21;4.95;;;3.30;;
19006;SDS011;9636;47.382;8.480;2023-06-14T14:30:47;4.57;;;3.22;;
19006;SDS011;9636;47.382;8.480;2023-06-14T14:33:15;3.95;;;3.40;;
19006;SDS011;9636;47.382;8.480;2023-06-14T14:35:42;8.23;;;3.50;;
19006;SDS011;9636;47.382;8.480;2023-06-14T14:38:10;3.70;;;3.40;;
19006;SDS011;9636;47.382;8.480;2023-06-14T14:40:38;11.20;;;3.25;;
19006;SDS011;9636;47.382;8.480;2023-06-14T14:43:05;4.82;;;3.38;;
19006;SDS011;9636;47.382;8.480;2023-06-14T14:45:33;6.50;;;3.55;;
19006;SDS011;9636;47.382;8.480;2023-06-14T14:48:00;5.00;;;3.50;;
19006;SDS011;9636;47.382;8.480;2023-06-14T14:50:28;7.60;;;3.70;;
19006;SDS011;9636;47.382;8.480;2023-06-14T14:52:55;6.28;;;3.70;;
19006;SDS011;9636;47.382;8.480;2023-06-14T14:55:22;5.75;;;3.90;;
19006;SDS011;9636;47.382;8.480;2023-06-14T14:57:49;3.70;;;3.40;;
19006;SDS011;9636;47.382;8.480;2023-06-14T15:00:16;9.00;;;3.20;;
19006;SDS011;9636;47.382;8.480;2023-06-14T15:02:44;4.00;;;3.58;;
19006;SDS011;9636;47.382;8.480;2023-06-14T15:05:11;7.72;;;3.70;;
19006;SDS011;9636;47.382;8.480;2023-06-14T15:07:38;4.70;;;3.50;;
19006;SDS011;9636;47.382;8.480;2023-06-14T15:10:06;5.35;;;3.80;;
19006;SDS011;9636;47.382;8.480;2023-06-14T15:12:34;7.10;;;3.45;;
19006;SDS011;9636;47.382;8.480;2023-06-14T15:15:02;7.38;;;3.38;;